Terminal Aerodrome Forecast
Issued by NWS Bismarck, ND

Home | Current Version | Previous Version | Graphics & Text | Print | Product List | Glossary On
Versions: 1 2 3 4 5 6 7 8 9 10 11 12 13 14
216
FTUS43 KBIS 161909 AAA
TAFISN
TAF AMD
KISN 161909Z 1619/1718 17015G20KT P6SM SCT100
     FM162100 19010KT P6SM BKN200
     FM170100 22007KT P6SM BKN150
     FM170400 26006KT P6SM BKN200
     FM171200 32004KT P6SM SCT200=

USA.gov is the U.S. government's official web portal to all federal, state and local government web resources and services.